createdAt,value
2018-09-02T00:00:39.830Z,100865.00
2018-09-02T00:03:07.438Z,100863.00
2018-09-02T00:05:35.068Z,100865.00
2018-09-02T00:08:03.428Z,100860.00
2018-09-02T00:10:31.324Z,100869.00
2018-09-02T00:12:59.171Z,100862.00
2018-09-02T00:15:27.023Z,100867.00
2018-09-02T00:17:54.698Z,100863.00
2018-09-02T00:20:22.310Z,100863.00
2018-09-02T00:22:50.488Z,100861.00
2018-09-02T00:25:18.392Z,100865.00
2018-09-02T00:27:46.179Z,100859.00
2018-09-02T00:30:13.818Z,100862.00
2018-09-02T00:32:41.664Z,100866.00
2018-09-02T00:35:09.309Z,100860.00
2018-09-02T00:37:37.238Z,100854.00
2018-09-02T00:40:05.005Z,100854.00
2018-09-02T00:42:33.128Z,100848.00
2018-09-02T00:45:00.846Z,100844.00
2018-09-02T00:47:28.153Z,100844.00
2018-09-02T00:49:55.707Z,100842.00
2018-09-02T00:52:23.387Z,100840.00
2018-09-02T00:54:51.579Z,100845.00
2018-09-02T00:57:19.233Z,100839.00
2018-09-02T00:59:47.101Z,100844.00
2018-09-02T01:02:14.669Z,100847.00
2018-09-02T01:04:42.505Z,100846.00
2018-09-02T01:07:10.449Z,100847.00
2018-09-02T01:09:38.114Z,100845.00
2018-09-02T01:12:05.740Z,100841.00
2018-09-02T01:14:33.554Z,100845.00
2018-09-02T01:17:01.089Z,100846.00
2018-09-02T01:19:29.090Z,100843.00
2018-09-02T01:21:56.759Z,100845.00
2018-09-02T01:24:24.418Z,100841.00
2018-09-02T01:26:52.109Z,100836.00
2018-09-02T01:29:19.831Z,100836.00
2018-09-02T01:31:47.528Z,100846.00
2018-09-02T01:34:15.258Z,100844.00
2018-09-02T01:36:57.493Z,100844.00
2018-09-02T01:39:25.275Z,100847.00
2018-09-02T01:41:52.886Z,100848.00
2018-09-02T01:44:21.092Z,100847.00
2018-09-02T01:46:48.768Z,100843.00
2018-09-02T01:49:16.383Z,100842.00
2018-09-02T01:51:43.988Z,100839.00
2018-09-02T01:54:11.765Z,100841.00
2018-09-02T01:56:39.442Z,100844.00
2018-09-02T01:59:07.026Z,100844.00
2018-09-02T02:01:34.791Z,100840.00
2018-09-02T02:04:02.741Z,100844.00
2018-09-02T02:06:30.008Z,100839.00
2018-09-02T02:08:57.773Z,100838.00
2018-09-02T02:11:25.372Z,100828.00
2018-09-02T02:13:53.036Z,100826.00
2018-09-02T02:16:20.818Z,100819.00
2018-09-02T02:18:48.440Z,100821.00
2018-09-02T02:21:16.019Z,100824.00
2018-09-02T02:23:43.616Z,100816.00
2018-09-02T02:26:11.445Z,100809.00
2018-09-02T02:28:39.001Z,100807.00
2018-09-02T02:31:06.702Z,100805.00
2018-09-02T02:33:34.697Z,100802.00
2018-09-02T02:36:02.291Z,100803.00
2018-09-02T02:38:29.920Z,100802.00
2018-09-02T02:40:58.103Z,100803.00
2018-09-02T02:43:25.671Z,100798.00
2018-09-02T02:45:53.331Z,100798.00
2018-09-02T02:48:21.301Z,100792.00
2018-09-02T02:50:48.861Z,100794.00
2018-09-02T02:53:16.396Z,100801.00
2018-09-02T02:55:44.225Z,100799.00
2018-09-02T02:58:11.797Z,100800.00
2018-09-02T03:00:39.464Z,100802.00
2018-09-02T03:03:07.391Z,100805.00
2018-09-02T03:05:35.708Z,100803.00
2018-09-02T03:08:03.164Z,100800.00
2018-09-02T03:10:31.004Z,100799.00
2018-09-02T03:12:58.608Z,100802.00
2018-09-02T03:15:26.241Z,100803.00
2018-09-02T03:17:53.936Z,100801.00
2018-09-02T03:20:21.516Z,100800.00
2018-09-02T03:22:49.133Z,100800.00
2018-09-02T03:25:17.014Z,100800.00
2018-09-02T03:27:44.617Z,100798.00
2018-09-02T03:30:12.203Z,100794.00
2018-09-02T03:32:40.133Z,100798.00
2018-09-02T03:35:07.770Z,100797.00
2018-09-02T03:37:36.504Z,100797.00
2018-09-02T03:40:04.858Z,100796.00
2018-09-02T03:42:32.512Z,100790.00
2018-09-02T03:45:00.217Z,100789.00
2018-09-02T03:47:28.121Z,100786.00
2018-09-02T03:49:55.696Z,100781.00
2018-09-02T03:52:23.515Z,100780.00
2018-09-02T03:54:51.126Z,100772.00
2018-09-02T03:57:18.728Z,100773.00
2018-09-02T03:59:46.386Z,100771.00
2018-09-02T04:02:14.148Z,100774.00
2018-09-02T04:04:41.810Z,100770.00
2018-09-02T04:07:09.406Z,100773.00
2018-09-02T04:09:37.478Z,100764.00
2018-09-02T04:12:05.551Z,100771.00
2018-09-02T04:14:33.177Z,100767.00
2018-09-02T04:17:00.774Z,100760.00
2018-09-02T04:19:28.960Z,100760.00
2018-09-02T04:21:56.608Z,100756.00
2018-09-02T04:24:24.130Z,100758.00
2018-09-02T04:26:51.964Z,100762.00
2018-09-02T04:29:19.505Z,100763.00
2018-09-02T04:31:47.057Z,100761.00
2018-09-02T04:34:14.857Z,100757.00
2018-09-02T04:36:42.393Z,100762.00
2018-09-02T04:39:10.003Z,100762.00
2018-09-02T04:41:38.270Z,100756.00
2018-09-02T04:44:05.945Z,100759.00
2018-09-02T04:46:34.017Z,100751.00
2018-09-02T04:49:01.754Z,100753.00
2018-09-02T04:51:29.486Z,100752.00
2018-09-02T04:53:57.087Z,100755.00
2018-09-02T04:56:24.872Z,100751.00
2018-09-02T04:58:52.448Z,100755.00
2018-09-02T05:01:20.120Z,100759.00
2018-09-02T05:03:48.001Z,100760.00
2018-09-02T05:06:15.869Z,100757.00
2018-09-02T05:08:43.940Z,100758.00
2018-09-02T05:11:11.816Z,100759.00
2018-09-02T05:13:39.521Z,100761.00
2018-09-02T05:16:07.349Z,100764.00
2018-09-02T05:18:35.163Z,100763.00
2018-09-02T05:21:02.778Z,100764.00
2018-09-02T05:23:30.765Z,100766.00
2018-09-02T05:25:58.370Z,100768.00
2018-09-02T05:28:30.773Z,100765.00
2018-09-02T05:30:58.397Z,100762.00
2018-09-02T05:33:26.068Z,100763.00
2018-09-02T05:35:53.867Z,100761.00
2018-09-02T05:38:21.556Z,100762.00
2018-09-02T05:40:49.263Z,100757.00
2018-09-02T05:43:17.010Z,100759.00
2018-09-02T05:45:44.613Z,100757.00
2018-09-02T05:48:12.329Z,100759.00
2018-09-02T05:50:39.891Z,100757.00
2018-09-02T05:53:07.506Z,100754.00
2018-09-02T05:55:35.267Z,100748.00
2018-09-02T05:58:03.129Z,100748.00
2018-09-02T06:00:39.522Z,100746.00
2018-09-02T06:03:13.862Z,100746.00
2018-09-02T06:05:47.926Z,100747.00
2018-09-02T06:08:54.121Z,100753.00
2018-09-02T06:12:00.633Z,100752.00
2018-09-02T06:14:28.246Z,100754.00
2018-09-02T06:16:56.135Z,100756.00
2018-09-02T06:19:23.805Z,100754.00
2018-09-02T06:21:51.448Z,100747.00
2018-09-02T06:24:19.304Z,100743.00
2018-09-02T06:26:46.885Z,100748.00
2018-09-02T06:29:14.595Z,100747.00
2018-09-02T06:31:42.282Z,100749.00
2018-09-02T06:34:09.877Z,100744.00
2018-09-02T06:36:37.400Z,100745.00
2018-09-02T06:39:08.205Z,100745.00
2018-09-02T06:41:36.237Z,100751.00
2018-09-02T06:44:03.813Z,100750.00
2018-09-02T06:46:31.533Z,100751.00
2018-09-02T06:48:59.151Z,100747.00
2018-09-02T06:51:26.809Z,100750.00
2018-09-02T06:53:54.437Z,100750.00
2018-09-02T06:56:22.177Z,100754.00
2018-09-02T06:58:49.815Z,100752.00
2018-09-02T07:01:17.444Z,100754.00
2018-09-02T07:03:45.422Z,100753.00
2018-09-02T07:06:13.071Z,100757.00
2018-09-02T07:08:40.648Z,100758.00
2018-09-02T07:11:08.300Z,100753.00
2018-09-02T07:13:36.376Z,100757.00
2018-09-02T07:16:03.977Z,100755.00
2018-09-02T07:18:31.620Z,100754.00
2018-09-02T07:20:59.572Z,100757.00
2018-09-02T07:23:27.166Z,100760.00
2018-09-02T07:25:55.183Z,100756.00
2018-09-02T07:28:22.901Z,100762.00
2018-09-02T07:30:51.100Z,100758.00
2018-09-02T07:33:19.048Z,100755.00
2018-09-02T07:35:46.828Z,100761.00
2018-09-02T07:38:14.747Z,100763.00
2018-09-02T07:40:42.654Z,100764.00
2018-09-02T07:43:10.258Z,100762.00
2018-09-02T07:45:38.124Z,100768.00
2018-09-02T07:48:05.857Z,100765.00
2018-09-02T07:50:33.782Z,100766.00
2018-09-02T07:53:01.385Z,100766.00
2018-09-02T07:55:28.996Z,100765.00
2018-09-02T07:57:57.188Z,100763.00
2018-09-02T08:00:24.961Z,100762.00
2018-09-02T08:02:52.543Z,100760.00
2018-09-02T08:05:20.634Z,100760.00
2018-09-02T08:07:48.538Z,100758.00
2018-09-02T08:10:16.309Z,100757.00
2018-09-02T08:12:44.278Z,100758.00
2018-09-02T08:15:12.352Z,100758.00
2018-09-02T08:17:40.273Z,100767.00
2018-09-02T08:20:07.949Z,100760.00
2018-09-02T08:22:36.581Z,100758.00
2018-09-02T08:25:04.633Z,100758.00
2018-09-02T08:27:32.567Z,100754.00
2018-09-02T08:30:00.158Z,100756.00
2018-09-02T08:32:27.913Z,100757.00
2018-09-02T08:34:55.710Z,100751.00
2018-09-02T08:37:23.360Z,100756.00
2018-09-02T08:40:26.816Z,100749.00
2018-09-02T08:42:54.443Z,100757.00
2018-09-02T08:45:22.085Z,100759.00
2018-09-02T08:47:50.448Z,100762.00
2018-09-02T08:50:18.168Z,100763.00
2018-09-02T08:52:45.898Z,100764.00
2018-09-02T08:55:13.512Z,100758.00
2018-09-02T08:57:41.128Z,100752.00
2018-09-02T09:00:09.337Z,100746.00
2018-09-02T09:02:37.077Z,100744.00
2018-09-02T09:05:04.911Z,100745.00
2018-09-02T09:07:33.379Z,100746.00
2018-09-02T09:10:01.390Z,100745.00
2018-09-02T09:12:28.966Z,100741.00
2018-09-02T09:14:56.712Z,100742.00
2018-09-02T09:17:24.478Z,100744.00
2018-09-02T09:19:52.097Z,100749.00
2018-09-02T09:22:20.018Z,100746.00
2018-09-02T09:24:47.632Z,100744.00
2018-09-02T09:27:18.936Z,100741.00
2018-09-02T09:29:46.814Z,100744.00
2018-09-02T09:32:14.435Z,100744.00
2018-09-02T09:34:42.196Z,100742.00
2018-09-02T09:37:09.908Z,100741.00
2018-09-02T09:40:15.826Z,100746.00
2018-09-02T09:43:08.876Z,100744.00
2018-09-02T09:45:36.474Z,100738.00
2018-09-02T09:48:37.695Z,100738.00
2018-09-02T09:51:20.717Z,100738.00
2018-09-02T09:53:48.808Z,100740.00
2018-09-02T09:56:54.772Z,100737.00
2018-09-02T10:00:00.392Z,100730.00
2018-09-02T10:02:30.134Z,100732.00
2018-09-02T10:04:57.781Z,100733.00
2018-09-02T10:07:25.332Z,100728.00
2018-09-02T10:09:53.301Z,100724.00
2018-09-02T10:12:20.873Z,100717.00
2018-09-02T10:14:48.502Z,100723.00
2018-09-02T10:17:16.436Z,100727.00
2018-09-02T10:19:43.923Z,100728.00
2018-09-02T10:22:11.603Z,100725.00
2018-09-02T10:24:39.371Z,100718.00
2018-09-02T10:27:06.978Z,100716.00
2018-09-02T10:29:34.538Z,100711.00
2018-09-02T10:32:02.456Z,100699.00
2018-09-02T10:34:30.099Z,100695.00
2018-09-02T10:36:57.885Z,100690.00
2018-09-02T10:39:25.507Z,100698.00
2018-09-02T10:41:53.078Z,100701.00
2018-09-02T10:44:20.850Z,100700.00
2018-09-02T10:46:48.454Z,100708.00
2018-09-02T10:49:16.047Z,100703.00
2018-09-02T10:51:43.927Z,100695.00
2018-09-02T10:54:14.190Z,100686.00
2018-09-02T10:56:41.879Z,100680.00
2018-09-02T10:59:09.436Z,100678.00
2018-09-02T11:01:37.099Z,100682.00
2018-09-02T11:04:05.007Z,100683.00
2018-09-02T11:06:32.649Z,100677.00
2018-09-02T11:09:00.472Z,100682.00
2018-09-02T11:11:28.107Z,100679.00
2018-09-02T11:13:55.490Z,100679.00
2018-09-02T11:16:23.474Z,100673.00
2018-09-02T11:18:51.568Z,100668.00
2018-09-02T11:21:19.333Z,100667.00
2018-09-02T11:23:47.188Z,100667.00
2018-09-02T11:26:14.780Z,100665.00
2018-09-02T11:28:42.536Z,100665.00
2018-09-02T11:31:10.244Z,100669.00
2018-09-02T11:33:37.894Z,100668.00
2018-09-02T11:36:05.538Z,100663.00
2018-09-02T11:38:33.151Z,100664.00
2018-09-02T11:41:01.069Z,100666.00
2018-09-02T11:43:29.609Z,100661.00
2018-09-02T11:45:57.213Z,100660.00
2018-09-02T11:48:24.868Z,100659.00
2018-09-02T11:50:55.473Z,100665.00
2018-09-02T11:53:23.190Z,100661.00
2018-09-02T11:55:51.248Z,100662.00
2018-09-02T11:58:18.928Z,100662.00
2018-09-02T12:00:46.518Z,100654.00
2018-09-02T12:03:14.245Z,100662.00
2018-09-02T12:05:42.040Z,100666.00
2018-09-02T12:08:09.685Z,100667.00
2018-09-02T12:10:37.584Z,100667.00
2018-09-02T12:13:05.254Z,100668.00
2018-09-02T12:15:32.901Z,100673.00
2018-09-02T12:18:01.310Z,100670.00
2018-09-02T12:20:28.955Z,100664.00
2018-09-02T12:22:56.514Z,100661.00
2018-09-02T12:25:24.185Z,100662.00
2018-09-02T12:27:51.880Z,100662.00
2018-09-02T12:30:19.534Z,100664.00
2018-09-02T12:32:47.365Z,100667.00
2018-09-02T12:35:15.049Z,100664.00
2018-09-02T12:37:42.711Z,100661.00
2018-09-02T12:40:10.825Z,100655.00
2018-09-02T12:42:38.429Z,100652.00
2018-09-02T12:45:06.389Z,100655.00
2018-09-02T12:47:34.686Z,100648.00
2018-09-02T12:50:02.330Z,100649.00
2018-09-02T12:52:30.070Z,100649.00
2018-09-02T12:54:57.755Z,100646.00
2018-09-02T12:57:25.532Z,100648.00
2018-09-02T12:59:53.287Z,100644.00
2018-09-02T13:02:21.268Z,100645.00
2018-09-02T13:04:48.938Z,100646.00
2018-09-02T13:07:17.110Z,100636.00
2018-09-02T13:09:44.787Z,100636.00
2018-09-02T13:12:12.409Z,100629.00
2018-09-02T13:14:40.248Z,100626.00
2018-09-02T13:17:07.858Z,100624.00
2018-09-02T13:19:35.700Z,100622.00
2018-09-02T13:22:03.365Z,100622.00
2018-09-02T13:24:30.957Z,100624.00
2018-09-02T13:26:58.650Z,100621.00
2018-09-02T13:29:26.266Z,100620.00
2018-09-02T13:31:54.162Z,100621.00
2018-09-02T13:34:21.901Z,100627.00
2018-09-02T13:36:49.536Z,100627.00
2018-09-02T13:39:17.276Z,100625.00
2018-09-02T13:41:45.078Z,100623.00
2018-09-02T13:44:12.691Z,100625.00
2018-09-02T13:46:40.409Z,100622.00
2018-09-02T13:49:08.151Z,100623.00
2018-09-02T13:51:35.812Z,100625.00
2018-09-02T13:54:03.451Z,100629.00
2018-09-02T13:56:31.268Z,100628.00
2018-09-02T13:58:58.866Z,100626.00
2018-09-02T14:01:26.763Z,100622.00
2018-09-02T14:03:54.493Z,100621.00
2018-09-02T14:06:22.081Z,100619.00
2018-09-02T14:08:49.680Z,100620.00
2018-09-02T14:11:17.577Z,100617.00
2018-09-02T14:13:45.214Z,100610.00
2018-09-02T14:16:13.040Z,100611.00
2018-09-02T14:18:41.213Z,100614.00
2018-09-02T14:21:08.808Z,100610.00
2018-09-02T14:23:36.361Z,100614.00
2018-09-02T14:26:04.609Z,100610.00
2018-09-02T14:28:32.657Z,100602.00
2018-09-02T14:31:00.220Z,100611.00
2018-09-02T14:33:28.680Z,100611.00
2018-09-02T14:35:56.306Z,100606.00
2018-09-02T14:38:23.866Z,100610.00
2018-09-02T14:40:51.960Z,100616.00
2018-09-02T14:43:19.401Z,100611.00
2018-09-02T14:45:46.972Z,100609.00
2018-09-02T14:48:14.746Z,100612.00
2018-09-02T14:50:42.407Z,100607.00
2018-09-02T14:53:10.353Z,100607.00
2018-09-02T14:55:37.905Z,100604.00
2018-09-02T14:58:07.897Z,100600.00
2018-09-02T15:00:36.272Z,100604.00
2018-09-02T15:03:41.636Z,100595.00
2018-09-02T15:06:23.948Z,100595.00
2018-09-02T15:08:51.588Z,100601.00
2018-09-02T15:11:47.253Z,100595.00
2018-09-02T15:14:15.167Z,100592.00
2018-09-02T15:16:42.870Z,100586.00
2018-09-02T15:19:21.755Z,100582.00
2018-09-02T15:21:49.585Z,100576.00
2018-09-02T15:24:56.345Z,100575.00
2018-09-02T15:27:24.369Z,100572.00
2018-09-02T15:29:52.036Z,100573.00
2018-09-02T15:32:19.705Z,100573.00
2018-09-02T15:34:48.085Z,100575.00
2018-09-02T15:37:16.466Z,100575.00
2018-09-02T15:39:51.805Z,100579.00
2018-09-02T15:42:19.371Z,100574.00
2018-09-02T15:44:46.793Z,100571.00
2018-09-02T15:47:14.726Z,100569.00
2018-09-02T15:49:42.649Z,100572.00
2018-09-02T15:52:10.536Z,100571.00
2018-09-02T15:54:38.426Z,100567.00
2018-09-02T15:57:06.473Z,100572.00
2018-09-02T15:59:35.399Z,100578.00
2018-09-02T16:02:03.905Z,100582.00
2018-09-02T16:04:31.577Z,100579.00
2018-09-02T16:06:59.397Z,100583.00
2018-09-02T16:09:36.702Z,100586.00
2018-09-02T16:12:42.394Z,100588.00
2018-09-02T16:15:10.258Z,100591.00
2018-09-02T16:17:37.841Z,100587.00
2018-09-02T16:20:06.624Z,100583.00
2018-09-02T16:22:34.134Z,100578.00
2018-09-02T16:25:01.743Z,100576.00
2018-09-02T16:27:29.723Z,100577.00
2018-09-02T16:29:57.443Z,100574.00
2018-09-02T16:32:25.758Z,100567.00
2018-09-02T16:34:53.329Z,100563.00
2018-09-02T16:37:21.335Z,100557.00
2018-09-02T16:39:48.536Z,100554.00
2018-09-02T16:42:16.149Z,100557.00
2018-09-02T16:44:43.745Z,100558.00
2018-09-02T16:47:11.391Z,100555.00
2018-09-02T16:49:38.976Z,100557.00
2018-09-02T16:52:06.841Z,100547.00
2018-09-02T16:54:34.380Z,100554.00
2018-09-02T16:57:01.960Z,100551.00
2018-09-02T16:59:30.024Z,100551.00
2018-09-02T17:01:57.579Z,100552.00
2018-09-02T17:04:27.178Z,100545.00
2018-09-02T17:06:55.324Z,100546.00
2018-09-02T17:09:22.869Z,100544.00
2018-09-02T17:11:50.453Z,100549.00
2018-09-02T17:14:18.277Z,100550.00
2018-09-02T17:16:45.880Z,100549.00
2018-09-02T17:19:22.493Z,100551.00
2018-09-02T17:21:50.090Z,100552.00
2018-09-02T17:24:17.900Z,100557.00
2018-09-02T17:26:45.750Z,100556.00
2018-09-02T17:29:15.134Z,100552.00
2018-09-02T17:31:42.789Z,100548.00
2018-09-02T17:34:10.530Z,100554.00
2018-09-02T17:36:38.097Z,100555.00
2018-09-02T17:39:08.993Z,100546.00
2018-09-02T17:41:36.689Z,100541.00
2018-09-02T17:44:04.315Z,100539.00
2018-09-02T17:46:31.881Z,100536.00
2018-09-02T17:49:00.374Z,100542.00
2018-09-02T17:51:28.178Z,100555.00
2018-09-02T17:53:56.198Z,100553.00
2018-09-02T17:56:23.809Z,100542.00
2018-09-02T17:59:16.435Z,100535.00
2018-09-02T18:01:44.494Z,100528.00
2018-09-02T18:04:12.389Z,100527.00
2018-09-02T18:06:41.056Z,100520.00
2018-09-02T18:09:10.764Z,100522.00
2018-09-02T18:11:39.077Z,100525.00
2018-09-02T18:14:07.392Z,100536.00
2018-09-02T18:16:36.917Z,100533.00
2018-09-02T18:19:04.572Z,100529.00
2018-09-02T18:21:34.056Z,100523.00
2018-09-02T18:24:02.949Z,100519.00
2018-09-02T18:26:30.998Z,100522.00
2018-09-02T18:28:59.455Z,100518.00
2018-09-02T18:31:27.117Z,100521.00
2018-09-02T18:33:54.817Z,100522.00
2018-09-02T18:36:23.021Z,100516.00
2018-09-02T18:38:50.852Z,100517.00
2018-09-02T18:41:19.889Z,100516.00
2018-09-02T18:43:47.815Z,100516.00
2018-09-02T18:46:16.258Z,100511.00
2018-09-02T18:48:44.023Z,100513.00
2018-09-02T18:51:11.854Z,100519.00
2018-09-02T18:53:39.754Z,100514.00
2018-09-02T18:56:07.802Z,100505.00
2018-09-02T18:58:36.160Z,100502.00
2018-09-02T19:01:04.195Z,100508.00
2018-09-02T19:03:32.057Z,100503.00
2018-09-02T19:05:59.769Z,100507.00
2018-09-02T19:08:27.340Z,100508.00
2018-09-02T19:10:55.433Z,100506.00
2018-09-02T19:13:23.000Z,100498.00
2018-09-02T19:15:51.189Z,100495.00
2018-09-02T19:18:19.769Z,100496.00
2018-09-02T19:20:47.537Z,100492.00
2018-09-02T19:23:16.759Z,100492.00
2018-09-02T19:25:44.878Z,100495.00
2018-09-02T19:28:13.015Z,100495.00
2018-09-02T19:30:40.619Z,100500.00
2018-09-02T19:33:08.452Z,100499.00
2018-09-02T19:35:36.184Z,100499.00
2018-09-02T19:38:04.146Z,100503.00
2018-09-02T19:40:32.723Z,100507.00
2018-09-02T19:43:00.642Z,100503.00
2018-09-02T19:45:28.983Z,100498.00
2018-09-02T19:47:57.589Z,100507.00
2018-09-02T19:50:26.100Z,100509.00
2018-09-02T19:52:53.731Z,100509.00
2018-09-02T19:55:22.047Z,100498.00
2018-09-02T19:57:50.422Z,100486.00
2018-09-02T20:00:18.170Z,100490.00
2018-09-02T20:02:46.260Z,100491.00
2018-09-02T20:05:14.650Z,100488.00
2018-09-02T20:07:42.614Z,100487.00
2018-09-02T20:10:11.295Z,100484.00
2018-09-02T20:12:39.023Z,100485.00
2018-09-02T20:15:06.739Z,100480.00
2018-09-02T20:17:34.567Z,100472.00
2018-09-02T20:20:02.224Z,100474.00
2018-09-02T20:22:29.892Z,100474.00
2018-09-02T20:24:57.825Z,100473.00
2018-09-02T20:27:25.450Z,100471.00
2018-09-02T20:29:53.283Z,100467.00
2018-09-02T20:32:21.695Z,100470.00
2018-09-02T20:34:49.481Z,100464.00
2018-09-02T20:37:17.213Z,100471.00
2018-09-02T20:39:45.084Z,100466.00
2018-09-02T20:42:13.232Z,100468.00
2018-09-02T20:44:40.993Z,100467.00
2018-09-02T20:47:18.274Z,100464.00
2018-09-02T20:49:45.972Z,100463.00
2018-09-02T20:52:13.912Z,100463.00
2018-09-02T20:54:42.728Z,100458.00
2018-09-02T20:57:10.336Z,100460.00
2018-09-02T20:59:38.851Z,100455.00
2018-09-02T21:02:06.853Z,100455.00
2018-09-02T21:04:34.468Z,100459.00
2018-09-02T21:07:02.041Z,100455.00
2018-09-02T21:09:30.061Z,100451.00
2018-09-02T21:11:57.197Z,100436.00
2018-09-02T21:14:24.621Z,100431.00
2018-09-02T21:16:52.276Z,100421.00
2018-09-02T21:19:19.869Z,100416.00
2018-09-02T21:21:47.448Z,100424.00
2018-09-02T21:24:15.348Z,100426.00
2018-09-02T21:26:42.940Z,100428.00
2018-09-02T21:29:10.539Z,100418.00
2018-09-02T21:31:38.164Z,100424.00
2018-09-02T21:34:05.740Z,100414.00
2018-09-02T21:36:33.315Z,100410.00
2018-09-02T21:39:01.488Z,100401.00
2018-09-02T21:41:29.037Z,100384.00
2018-09-02T21:43:56.672Z,100377.00
2018-09-02T21:46:24.473Z,100371.00
2018-09-02T21:48:52.021Z,100360.00
2018-09-02T21:51:19.659Z,100356.00
2018-09-02T21:53:47.458Z,100344.00
2018-09-02T21:56:15.097Z,100340.00
2018-09-02T21:58:42.698Z,100343.00
2018-09-02T22:01:10.664Z,100347.00
2018-09-02T22:03:38.288Z,100350.00
2018-09-02T22:06:05.949Z,100354.00
2018-09-02T22:08:34.592Z,100348.00
2018-09-02T22:11:02.471Z,100349.00
2018-09-02T22:13:30.229Z,100363.00
2018-09-02T22:15:58.385Z,100358.00
2018-09-02T22:18:26.022Z,100351.00
2018-09-02T22:20:53.585Z,100347.00
2018-09-02T22:23:21.400Z,100351.00
2018-09-02T22:25:48.989Z,100354.00
2018-09-02T22:28:16.552Z,100359.00
2018-09-02T22:30:44.328Z,100366.00
2018-09-02T22:33:11.889Z,100366.00
2018-09-02T22:35:39.482Z,100370.00
2018-09-02T22:38:07.064Z,100380.00
2018-09-02T22:40:34.640Z,100372.00
2018-09-02T22:43:02.090Z,100366.00
2018-09-02T22:45:29.673Z,100364.00
2018-09-02T22:47:57.272Z,100365.00
2018-09-02T22:50:25.008Z,100360.00
2018-09-02T22:52:52.547Z,100351.00
2018-09-02T22:55:20.069Z,100349.00
2018-09-02T22:57:48.091Z,100351.00
2018-09-02T23:00:15.636Z,100343.00
2018-09-02T23:02:46.033Z,100338.00
2018-09-02T23:05:22.501Z,100338.00
2018-09-02T23:07:50.500Z,100331.00
2018-09-02T23:10:56.409Z,100335.00
2018-09-02T23:14:02.680Z,100330.00
2018-09-02T23:16:53.189Z,100319.00
2018-09-02T23:19:20.733Z,100318.00
2018-09-02T23:21:48.786Z,100322.00
2018-09-02T23:24:16.360Z,100323.00
2018-09-02T23:26:43.961Z,100321.00
2018-09-02T23:29:11.805Z,100323.00
2018-09-02T23:31:39.388Z,100323.00
2018-09-02T23:34:06.977Z,100323.00
2018-09-02T23:36:34.987Z,100325.00
2018-09-02T23:39:03.152Z,100327.00
2018-09-02T23:41:30.779Z,100313.00
2018-09-02T23:43:58.738Z,100305.00
2018-09-02T23:46:26.416Z,100307.00
2018-09-02T23:48:53.949Z,100305.00
2018-09-02T23:51:21.821Z,100279.00
2018-09-02T23:53:49.395Z,100281.00
2018-09-02T23:56:16.921Z,100286.00
2018-09-02T23:58:44.741Z,100274.00
